createdAt,value
2017-05-07T00:00:49.642Z,94.60
2017-05-07T00:03:18.806Z,94.50
2017-05-07T00:05:48.012Z,94.40
2017-05-07T00:08:17.182Z,94.10
2017-05-07T00:10:46.373Z,94.30
2017-05-07T00:13:15.573Z,94.40
2017-05-07T00:15:44.754Z,93.60
2017-05-07T00:18:13.940Z,93.90
2017-05-07T00:20:43.142Z,93.90
2017-05-07T00:23:12.333Z,94.00
2017-05-07T00:25:41.521Z,94.00
2017-05-07T00:28:10.744Z,94.60
2017-05-07T00:30:39.922Z,94.80
2017-05-07T00:33:09.089Z,94.70
2017-05-07T00:35:38.283Z,94.70
2017-05-07T00:38:07.462Z,94.80
2017-05-07T00:40:36.792Z,95.00
2017-05-07T00:43:06.006Z,95.10
2017-05-07T00:45:35.178Z,95.00
2017-05-07T00:48:04.370Z,95.30
2017-05-07T00:50:33.562Z,95.20
2017-05-07T00:53:02.733Z,94.90
2017-05-07T00:55:31.909Z,94.80
2017-05-07T00:58:01.105Z,95.00
2017-05-07T01:00:30.279Z,94.80
2017-05-07T01:02:59.461Z,95.00
2017-05-07T01:05:28.653Z,94.80
2017-05-07T01:07:57.831Z,94.60
2017-05-07T01:10:27.018Z,95.10
2017-05-07T01:12:55.462Z,95.10
2017-05-07T01:15:24.638Z,94.90
2017-05-07T01:17:53.818Z,95.20
2017-05-07T01:20:23.009Z,95.30
2017-05-07T01:22:52.184Z,95.20
2017-05-07T01:25:21.359Z,95.20
2017-05-07T01:27:50.565Z,95.40
2017-05-07T01:30:19.573Z,95.10
2017-05-07T01:32:48.752Z,95.10
2017-05-07T01:35:17.966Z,95.40
2017-05-07T01:37:47.147Z,95.60
2017-05-07T01:40:16.322Z,95.60
2017-05-07T01:42:45.520Z,95.80
2017-05-07T01:45:14.693Z,96.30
2017-05-07T01:47:43.864Z,96.40
2017-05-07T01:50:12.720Z,96.50
2017-05-07T01:52:41.895Z,96.40
2017-05-07T01:55:11.057Z,96.50
2017-05-07T01:57:40.250Z,96.50
2017-05-07T02:00:09.423Z,96.50
2017-05-07T02:02:38.593Z,96.40
2017-05-07T02:05:07.448Z,96.40
2017-05-07T02:07:36.619Z,96.40
2017-05-07T02:10:05.780Z,96.30
2017-05-07T02:12:34.975Z,96.40
2017-05-07T02:15:04.163Z,96.30
2017-05-07T02:17:33.338Z,96.40
2017-05-07T02:20:02.522Z,96.20
2017-05-07T02:22:31.686Z,96.20
2017-05-07T02:25:00.856Z,95.60
2017-05-07T02:27:30.057Z,95.80
2017-05-07T02:29:58.482Z,95.80
2017-05-07T02:32:27.658Z,95.60
2017-05-07T02:34:56.105Z,95.60
2017-05-07T02:37:25.293Z,95.60
2017-05-07T02:39:54.466Z,95.40
2017-05-07T02:42:23.677Z,95.50
2017-05-07T02:44:52.944Z,95.40
2017-05-07T02:47:22.123Z,95.50
2017-05-07T02:49:50.565Z,95.50
2017-05-07T02:52:19.746Z,96.10
2017-05-07T02:54:48.924Z,96.10
2017-05-07T02:57:18.131Z,96.20
2017-05-07T02:59:47.320Z,96.10
2017-05-07T03:02:16.497Z,96.30
2017-05-07T03:04:45.693Z,96.10
2017-05-07T03:07:14.865Z,96.10
2017-05-07T03:09:44.034Z,96.10
2017-05-07T03:12:13.243Z,96.40
2017-05-07T03:14:42.418Z,96.40
2017-05-07T03:17:11.595Z,96.40
2017-05-07T03:19:40.798Z,96.40
2017-05-07T03:22:09.974Z,96.20
2017-05-07T03:24:39.148Z,96.20
2017-05-07T03:27:08.365Z,96.20
2017-05-07T03:29:36.772Z,96.20
2017-05-07T03:32:05.946Z,96.50
2017-05-07T03:34:35.150Z,96.20
2017-05-07T03:37:03.562Z,96.20
2017-05-07T03:39:32.730Z,96.10
2017-05-07T03:42:01.166Z,96.10
2017-05-07T03:44:30.342Z,96.20
2017-05-07T03:46:59.514Z,96.30
2017-05-07T03:49:28.707Z,96.30
2017-05-07T03:51:57.874Z,96.00
2017-05-07T03:54:27.052Z,96.30
2017-05-07T03:56:56.241Z,96.50
2017-05-07T03:59:24.650Z,96.50
2017-05-07T04:01:53.821Z,96.30
2017-05-07T04:04:23.034Z,96.40
2017-05-07T04:06:52.201Z,96.30
2017-05-07T04:09:21.371Z,96.00
2017-05-07T04:11:50.574Z,96.20
2017-05-07T04:14:19.737Z,95.90
2017-05-07T04:16:48.916Z,95.70
2017-05-07T04:19:18.113Z,95.60
2017-05-07T04:21:47.287Z,95.50
2017-05-07T04:24:16.462Z,95.30
2017-05-07T04:26:45.671Z,95.40
2017-05-07T04:29:14.846Z,95.60
2017-05-07T04:31:44.030Z,94.60
2017-05-07T04:34:13.243Z,94.90
2017-05-07T04:36:42.417Z,94.60
2017-05-07T04:39:11.595Z,94.50
2017-05-07T04:41:40.802Z,94.40
2017-05-07T04:44:09.986Z,94.60
2017-05-07T04:46:38.403Z,94.60
2017-05-07T04:49:07.602Z,94.30
2017-05-07T04:51:36.781Z,94.50
2017-05-07T04:54:05.972Z,94.60
2017-05-07T04:56:35.166Z,94.60
2017-05-07T04:59:04.352Z,94.40
2017-05-07T05:01:33.529Z,94.40
2017-05-07T05:04:02.750Z,94.20
2017-05-07T05:06:31.926Z,94.40
2017-05-07T05:09:01.102Z,94.20
2017-05-07T05:11:30.323Z,93.80
2017-05-07T05:13:59.494Z,93.80
2017-05-07T05:16:27.907Z,93.70
2017-05-07T05:18:59.814Z,93.70
2017-05-07T05:21:43.521Z,93.60
2017-05-07T05:24:29.813Z,93.60
2017-05-07T05:27:06.324Z,93.90
2017-05-07T05:30:04.735Z,93.90
2017-05-07T05:32:33.906Z,93.70
2017-05-07T05:35:03.109Z,93.80
2017-05-07T05:37:32.314Z,93.70
2017-05-07T05:40:01.489Z,93.30
2017-05-07T05:42:29.201Z,93.30
2017-05-07T05:44:58.410Z,92.80
2017-05-07T05:47:27.589Z,92.90
2017-05-07T05:49:56.766Z,92.60
2017-05-07T05:52:25.956Z,92.40
2017-05-07T05:54:55.122Z,92.40
2017-05-07T05:57:23.530Z,92.30
2017-05-07T05:59:52.733Z,92.00
2017-05-07T06:02:21.138Z,92.00
2017-05-07T06:04:50.312Z,92.30
2017-05-07T06:07:19.508Z,92.20
2017-05-07T06:09:48.690Z,92.30
2017-05-07T06:12:17.103Z,92.30
2017-05-07T06:14:46.297Z,92.90
2017-05-07T06:17:15.480Z,92.90
2017-05-07T06:19:44.662Z,92.40
2017-05-07T06:22:13.878Z,92.00
2017-05-07T06:24:43.055Z,92.10
2017-05-07T06:27:12.240Z,91.90
2017-05-07T06:29:41.449Z,92.00
2017-05-07T06:32:13.506Z,92.30
2017-05-07T06:34:42.718Z,92.00
2017-05-07T06:37:11.897Z,91.90
2017-05-07T06:39:41.070Z,91.30
2017-05-07T06:42:09.189Z,91.20
2017-05-07T06:44:38.374Z,91.60
2017-05-07T06:47:06.791Z,91.60
2017-05-07T06:49:35.269Z,91.10
2017-05-07T06:52:04.437Z,90.70
2017-05-07T06:54:33.622Z,90.50
2017-05-07T06:57:02.833Z,90.10
2017-05-07T06:59:32.010Z,90.30
2017-05-07T07:02:01.189Z,90.20
2017-05-07T07:04:30.399Z,90.20
2017-05-07T07:06:59.573Z,90.20
2017-05-07T07:09:28.054Z,90.30
2017-05-07T07:11:57.290Z,89.90
2017-05-07T07:14:26.465Z,89.50
2017-05-07T07:16:55.654Z,88.80
2017-05-07T07:19:24.862Z,88.00
2017-05-07T07:21:54.042Z,87.20
2017-05-07T07:24:22.446Z,87.20
2017-05-07T07:26:51.657Z,85.40
2017-05-07T07:29:20.841Z,85.80
2017-05-07T07:31:50.018Z,84.30
2017-05-07T07:34:18.467Z,84.20
2017-05-07T07:36:47.634Z,84.70
2017-05-07T07:39:16.822Z,83.50
2017-05-07T07:41:46.041Z,83.60
2017-05-07T07:44:15.293Z,82.60
2017-05-07T07:46:44.468Z,81.60
2017-05-07T07:49:12.897Z,81.40
2017-05-07T07:51:42.086Z,81.60
2017-05-07T07:54:10.494Z,81.60
2017-05-07T07:56:39.697Z,79.20
2017-05-07T07:59:08.118Z,79.20
2017-05-07T08:01:37.302Z,78.00
2017-05-07T08:04:05.730Z,77.90
2017-05-07T08:06:34.897Z,77.70
2017-05-07T08:09:03.221Z,77.90
2017-05-07T08:11:32.442Z,76.50
2017-05-07T08:14:00.848Z,76.50
2017-05-07T08:16:30.027Z,72.00
2017-05-07T08:18:59.244Z,68.80
2017-05-07T08:21:28.426Z,68.70
2017-05-07T08:23:57.596Z,67.70
2017-05-07T08:26:26.832Z,65.90
2017-05-07T08:28:55.254Z,65.80
2017-05-07T08:31:24.438Z,63.80
2017-05-07T08:33:53.650Z,63.20
2017-05-07T08:36:22.826Z,61.80
2017-05-07T08:38:51.230Z,61.80
2017-05-07T08:41:20.426Z,63.40
2017-05-07T08:43:49.663Z,61.90
2017-05-07T08:46:18.834Z,58.80
2017-05-07T08:48:48.046Z,58.80
2017-05-07T08:51:17.218Z,58.00
2017-05-07T08:53:46.397Z,55.50
2017-05-07T08:56:15.606Z,53.40
2017-05-07T08:58:44.774Z,53.30
2017-05-07T09:01:13.953Z,56.20
2017-05-07T09:03:43.147Z,53.40
2017-05-07T09:06:11.587Z,53.30
2017-05-07T09:08:40.774Z,50.00
2017-05-07T09:11:08.334Z,50.00
2017-05-07T09:14:06.568Z,49.50
2017-05-07T09:16:35.616Z,49.60
2017-05-07T09:19:04.828Z,52.10
2017-05-07T09:21:34.003Z,52.70
2017-05-07T09:24:03.214Z,51.50
2017-05-07T09:26:32.394Z,50.50
2017-05-07T09:29:01.012Z,50.50
2017-05-07T09:31:30.444Z,50.40
2017-05-07T09:33:59.614Z,51.20
2017-05-07T09:36:28.026Z,51.20
2017-05-07T09:38:57.242Z,51.30
2017-05-07T09:41:26.414Z,54.70
2017-05-07T09:43:55.586Z,53.80
2017-05-07T09:46:24.794Z,52.80
2017-05-07T09:48:53.209Z,52.80
2017-05-07T09:51:21.628Z,53.50
2017-05-07T09:53:50.839Z,50.40
2017-05-07T09:56:20.018Z,50.20
2017-05-07T09:58:48.845Z,49.20
2017-05-07T10:01:18.045Z,48.90
2017-05-07T10:03:47.254Z,48.00
2017-05-07T10:06:16.434Z,47.60
2017-05-07T10:08:44.865Z,47.60
2017-05-07T10:11:14.046Z,45.50
2017-05-07T10:13:42.459Z,45.40
2017-05-07T10:16:11.650Z,47.10
2017-05-07T10:18:40.153Z,47.00
2017-05-07T10:21:09.334Z,50.80
2017-05-07T10:23:38.619Z,51.20
2017-05-07T10:26:07.797Z,51.30
2017-05-07T10:28:36.973Z,50.70
2017-05-07T10:31:06.181Z,51.40
2017-05-07T10:33:35.361Z,51.20
2017-05-07T10:36:04.541Z,51.10
2017-05-07T10:38:32.993Z,51.10
2017-05-07T10:41:02.171Z,51.00
2017-05-07T10:43:30.577Z,50.90
2017-05-07T10:45:59.802Z,49.50
2017-05-07T10:48:29.029Z,49.10
2017-05-07T10:50:58.302Z,48.70
2017-05-07T10:53:26.756Z,48.60
2017-05-07T10:55:55.941Z,47.40
2017-05-07T10:58:24.357Z,47.40
2017-05-07T11:00:53.564Z,47.90
2017-05-07T11:03:21.970Z,47.90
2017-05-07T11:05:51.134Z,48.80
2017-05-07T11:08:20.353Z,48.80
2017-05-07T11:10:49.524Z,47.50
2017-05-07T11:13:18.697Z,45.50
2017-05-07T11:15:47.905Z,47.10
2017-05-07T11:18:17.081Z,46.20
2017-05-07T11:20:46.254Z,45.50
2017-05-07T11:23:15.453Z,45.30
2017-05-07T11:25:44.625Z,45.50
2017-05-07T11:28:16.673Z,44.20
2017-05-07T11:30:46.029Z,43.90
2017-05-07T11:33:15.210Z,43.20
2017-05-07T11:35:44.405Z,41.70
2017-05-07T11:38:13.601Z,44.20
2017-05-07T11:40:42.786Z,43.50
2017-05-07T11:43:11.961Z,43.10
2017-05-07T11:45:41.150Z,43.20
2017-05-07T11:48:10.329Z,44.00
2017-05-07T11:50:39.319Z,43.70
2017-05-07T11:53:08.525Z,44.00
2017-05-07T11:55:37.702Z,43.70
2017-05-07T11:58:06.898Z,44.20
2017-05-07T12:00:36.778Z,45.50
2017-05-07T12:03:05.954Z,45.20
2017-05-07T12:05:35.138Z,45.60
2017-05-07T12:08:04.357Z,46.10
2017-05-07T12:10:32.762Z,46.20
2017-05-07T12:13:01.951Z,45.80
2017-05-07T12:15:31.163Z,45.90
2017-05-07T12:18:00.341Z,44.20
2017-05-07T12:20:29.509Z,44.40
2017-05-07T12:22:58.709Z,44.50
2017-05-07T12:25:27.887Z,44.70
2017-05-07T12:27:57.074Z,44.80
2017-05-07T12:30:26.294Z,46.10
2017-05-07T12:32:55.472Z,45.80
2017-05-07T12:35:24.657Z,45.20
2017-05-07T12:37:53.862Z,44.10
2017-05-07T12:40:23.049Z,45.40
2017-05-07T12:42:51.453Z,45.40
2017-05-07T12:45:20.649Z,46.00
2017-05-07T12:47:49.071Z,46.00
2017-05-07T12:50:17.485Z,45.70
2017-05-07T12:52:46.685Z,47.10
2017-05-07T12:55:15.868Z,48.60
2017-05-07T12:57:45.045Z,49.70
2017-05-07T13:00:14.246Z,50.10
2017-05-07T13:02:43.442Z,49.40
2017-05-07T13:05:12.622Z,49.90
2017-05-07T13:07:41.829Z,51.20
2017-05-07T13:10:10.997Z,51.00
2017-05-07T13:12:40.170Z,51.10
2017-05-07T13:15:09.387Z,51.60
2017-05-07T13:17:38.570Z,51.60
2017-05-07T13:20:07.743Z,51.50
2017-05-07T13:22:36.942Z,51.40
2017-05-07T13:25:06.115Z,51.50
2017-05-07T13:27:35.292Z,51.00
2017-05-07T13:30:04.500Z,51.10
2017-05-07T13:32:33.678Z,50.90
2017-05-07T13:35:02.875Z,51.00
2017-05-07T13:37:32.078Z,50.40
2017-05-07T13:40:01.454Z,48.90
2017-05-07T13:42:30.619Z,49.30
2017-05-07T13:44:59.817Z,49.40
2017-05-07T13:47:28.991Z,48.60
2017-05-07T13:49:57.408Z,48.50
2017-05-07T13:52:25.845Z,48.80
2017-05-07T13:54:55.022Z,48.20
2017-05-07T13:57:24.192Z,47.40
2017-05-07T13:59:53.397Z,47.20
2017-05-07T14:02:22.570Z,47.40
2017-05-07T14:04:51.737Z,46.80
2017-05-07T14:07:20.947Z,48.10
2017-05-07T14:09:50.133Z,48.50
2017-05-07T14:12:19.306Z,48.40
2017-05-07T14:14:48.502Z,47.70
2017-05-07T14:17:17.678Z,48.50
2017-05-07T14:19:46.851Z,49.00
2017-05-07T14:22:16.047Z,49.40
2017-05-07T14:24:45.217Z,48.80
2017-05-07T14:27:14.394Z,48.50
2017-05-07T14:29:42.843Z,48.50
2017-05-07T14:32:12.030Z,49.30
2017-05-07T14:34:41.205Z,49.30
2017-05-07T14:37:09.650Z,49.20
2017-05-07T14:39:38.829Z,48.70
2017-05-07T14:42:07.238Z,48.70
2017-05-07T14:44:36.442Z,48.70
2017-05-07T14:47:05.614Z,49.70
2017-05-07T14:49:34.794Z,50.50
2017-05-07T14:52:04.014Z,50.70
2017-05-07T14:54:33.199Z,50.70
2017-05-07T14:57:01.610Z,50.60
2017-05-07T14:59:30.823Z,52.50
2017-05-07T15:02:00.002Z,52.50
2017-05-07T15:04:29.175Z,53.00
2017-05-07T15:06:58.370Z,53.10
2017-05-07T15:09:27.533Z,53.10
2017-05-07T15:11:56.705Z,53.70
2017-05-07T15:14:25.905Z,54.20
2017-05-07T15:16:55.087Z,54.30
2017-05-07T15:19:23.494Z,54.20
2017-05-07T15:21:51.944Z,54.50
2017-05-07T15:24:20.352Z,54.60
2017-05-07T15:26:49.557Z,55.50
2017-05-07T15:29:18.765Z,55.50
2017-05-07T15:31:47.961Z,56.00
2017-05-07T15:34:16.370Z,56.00
2017-05-07T15:36:45.582Z,56.30
2017-05-07T15:39:14.759Z,56.80
2017-05-07T15:41:43.946Z,56.70
2017-05-07T15:44:12.817Z,56.90
2017-05-07T15:46:41.997Z,57.50
2017-05-07T15:49:11.183Z,57.20
2017-05-07T15:51:40.393Z,56.80
2017-05-07T15:54:08.808Z,56.80
2017-05-07T15:56:37.981Z,57.20
2017-05-07T15:59:07.164Z,57.20
2017-05-07T16:01:36.336Z,57.00
2017-05-07T16:04:05.637Z,57.10
2017-05-07T16:06:34.742Z,57.20
2017-05-07T16:09:03.382Z,56.90
2017-05-07T16:11:32.577Z,57.40
2017-05-07T16:14:00.986Z,57.40
2017-05-07T16:17:01.029Z,57.70
2017-05-07T16:19:44.738Z,56.40
2017-05-07T16:25:35.780Z,56.70
2017-05-07T16:28:05.022Z,56.90
2017-05-07T16:30:34.909Z,56.70
2017-05-07T16:33:04.741Z,57.00
2017-05-07T16:35:33.914Z,57.10
2017-05-07T16:38:03.106Z,56.80
2017-05-07T16:40:33.037Z,57.80
2017-05-07T16:43:02.213Z,57.50
2017-05-07T16:45:31.410Z,56.80
2017-05-07T16:48:01.326Z,56.40
2017-05-07T16:50:31.274Z,56.70
2017-05-07T16:53:00.463Z,57.20
2017-05-07T16:55:29.641Z,57.50
2017-05-07T16:57:59.569Z,57.30
2017-05-07T17:00:28.774Z,57.50
2017-05-07T17:03:03.292Z,58.20
2017-05-07T17:05:32.277Z,58.40
2017-05-07T17:08:02.194Z,58.80
2017-05-07T17:10:32.137Z,59.10
2017-05-07T17:13:01.116Z,59.10
2017-05-07T17:15:30.318Z,59.50
2017-05-07T17:17:59.493Z,59.60
2017-05-07T17:20:29.431Z,60.00
2017-05-07T17:22:58.614Z,60.20
2017-05-07T17:25:28.526Z,60.20
2017-05-07T17:27:57.719Z,60.60
2017-05-07T17:30:27.691Z,60.50
2017-05-07T17:32:56.860Z,60.90
2017-05-07T17:35:26.042Z,60.30
2017-05-07T17:37:55.961Z,60.60
2017-05-07T17:40:25.895Z,61.00
2017-05-07T17:42:55.061Z,60.80
2017-05-07T17:45:23.891Z,61.30
2017-05-07T17:47:53.077Z,60.90
2017-05-07T17:50:22.270Z,61.70
2017-05-07T17:52:52.213Z,60.60
2017-05-07T17:55:22.297Z,61.30
2017-05-07T17:57:52.256Z,61.80
2017-05-07T18:00:21.989Z,61.20
2017-05-07T18:02:51.797Z,61.30
2017-05-07T18:05:21.541Z,61.50
2017-05-07T18:07:51.895Z,62.10
2017-05-07T18:10:21.110Z,61.80
2017-05-07T18:12:50.314Z,61.90
2017-05-07T18:15:19.662Z,62.30
2017-05-07T18:17:48.841Z,61.50
2017-05-07T18:20:18.290Z,59.60
2017-05-07T18:22:47.478Z,59.70
2017-05-07T18:25:17.386Z,58.40
2017-05-07T18:27:47.324Z,58.20
2017-05-07T18:30:16.502Z,58.40
2017-05-07T18:32:46.426Z,57.80
2017-05-07T18:35:16.366Z,58.30
2017-05-07T18:37:45.541Z,59.10
2017-05-07T18:40:15.462Z,59.00
2017-05-07T18:42:45.382Z,59.00
2017-05-07T18:45:14.565Z,59.60
2017-05-07T18:47:44.494Z,59.30
2017-05-07T18:50:14.404Z,59.60
2017-05-07T18:52:44.332Z,59.70
2017-05-07T18:55:13.501Z,60.20
2017-05-07T18:57:42.691Z,60.90
2017-05-07T19:00:11.874Z,61.30
2017-05-07T19:02:41.046Z,61.80
2017-05-07T19:05:10.241Z,62.70
2017-05-07T19:07:39.415Z,63.10
2017-05-07T19:10:09.341Z,63.80
2017-05-07T19:12:38.537Z,64.30
2017-05-07T19:15:07.714Z,64.80
2017-05-07T19:17:37.658Z,65.20
2017-05-07T19:20:06.884Z,65.40
2017-05-07T19:22:36.051Z,65.20
2017-05-07T19:25:05.228Z,66.60
2017-05-07T19:27:35.142Z,67.30
2017-05-07T19:30:04.329Z,67.60
2017-05-07T19:32:33.489Z,68.40
2017-05-07T19:35:02.674Z,69.30
2017-05-07T19:37:31.846Z,69.30
2017-05-07T19:40:01.149Z,69.50
2017-05-07T19:42:31.066Z,69.90
2017-05-07T19:45:01.005Z,70.80
2017-05-07T19:47:30.178Z,71.60
2017-05-07T19:50:00.170Z,72.40
2017-05-07T19:52:29.349Z,72.80
2017-05-07T19:54:58.519Z,73.40
2017-05-07T19:57:27.709Z,74.40
2017-05-07T19:59:56.901Z,74.90
2017-05-07T20:02:26.074Z,75.40
2017-05-07T20:04:55.330Z,75.80
2017-05-07T20:07:24.494Z,76.70
2017-05-07T20:09:53.666Z,78.30
2017-05-07T20:12:22.853Z,77.70
2017-05-07T20:14:52.038Z,78.00
2017-05-07T20:17:21.207Z,78.60
2017-05-07T20:19:50.389Z,79.10
2017-05-07T20:22:19.562Z,79.40
2017-05-07T20:24:48.786Z,79.80
2017-05-07T20:27:17.957Z,79.70
2017-05-07T20:29:47.142Z,79.90
2017-05-07T20:32:16.326Z,80.60
2017-05-07T20:34:45.516Z,81.00
2017-05-07T20:37:14.693Z,81.20
2017-05-07T20:39:43.882Z,81.90
2017-05-07T20:42:13.074Z,81.80
2017-05-07T20:44:42.279Z,81.80
2017-05-07T20:47:11.449Z,82.50
2017-05-07T20:49:40.625Z,81.60
2017-05-07T20:52:09.809Z,81.70
2017-05-07T20:54:38.985Z,81.60
2017-05-07T20:57:08.188Z,82.40
2017-05-07T20:59:38.082Z,83.00
2017-05-07T21:02:07.278Z,84.10
2017-05-07T21:04:37.205Z,84.00
2017-05-07T21:07:06.190Z,84.40
2017-05-07T21:09:35.374Z,84.70
2017-05-07T21:12:05.307Z,84.30
2017-05-07T21:14:34.494Z,84.30
2017-05-07T21:17:04.410Z,84.70
2017-05-07T21:19:34.358Z,84.90
2017-05-07T21:22:03.529Z,84.90
2017-05-07T21:24:33.457Z,85.00
2017-05-07T21:27:02.658Z,85.60
2017-05-07T21:29:31.829Z,85.30
2017-05-07T21:32:01.757Z,85.70
2017-05-07T21:34:31.670Z,85.80
2017-05-07T21:37:01.586Z,86.50
2017-05-07T21:39:31.507Z,86.30
2017-05-07T21:42:01.436Z,86.50
2017-05-07T21:44:30.610Z,87.00
2017-05-07T21:47:00.750Z,87.30
2017-05-07T21:49:29.938Z,87.50
2017-05-07T21:51:59.880Z,89.30
2017-05-07T21:54:29.050Z,89.70
2017-05-07T21:56:58.983Z,90.00
2017-05-07T21:59:28.171Z,90.10
2017-05-07T22:01:58.082Z,90.20
2017-05-07T22:04:28.007Z,90.10
2017-05-07T22:06:57.183Z,90.10
2017-05-07T22:09:26.361Z,89.90
2017-05-07T22:11:55.529Z,90.00
2017-05-07T22:14:24.717Z,88.80
2017-05-07T22:16:53.887Z,90.00
2017-05-07T22:19:23.811Z,90.20
2017-05-07T22:21:53.727Z,90.20
2017-05-07T22:24:23.649Z,90.20
2017-05-07T22:26:52.822Z,90.00
2017-05-07T22:29:21.998Z,90.20
2017-05-07T22:31:51.165Z,90.00
2017-05-07T22:34:20.378Z,89.80
2017-05-07T22:36:49.546Z,89.90
2017-05-07T22:39:18.718Z,89.50
2017-05-07T22:41:48.641Z,89.80
2017-05-07T22:44:18.550Z,90.00
2017-05-07T22:46:48.483Z,89.70
2017-05-07T22:49:18.387Z,90.00
2017-05-07T22:51:48.305Z,90.10
2017-05-07T22:54:18.218Z,89.90
2017-05-07T22:56:48.137Z,89.70
2017-05-07T22:59:18.050Z,89.40
2017-05-07T23:01:47.964Z,89.30
2017-05-07T23:04:17.882Z,89.10
2017-05-07T23:06:47.817Z,88.40
2017-05-07T23:09:17.012Z,88.70
2017-05-07T23:11:46.186Z,87.50
2017-05-07T23:14:15.370Z,87.10
2017-05-07T23:16:44.536Z,86.40
2017-05-07T23:19:13.718Z,86.80
2017-05-07T23:21:42.885Z,86.40
2017-05-07T23:24:12.810Z,86.50
2017-05-07T23:26:42.721Z,86.10
2017-05-07T23:29:12.657Z,85.80
2017-05-07T23:31:41.821Z,85.60
2017-05-07T23:34:10.997Z,85.50
2017-05-07T23:36:40.185Z,85.50
2017-05-07T23:39:09.357Z,85.80
2017-05-07T23:41:38.544Z,85.70
2017-05-07T23:44:07.716Z,85.80
2017-05-07T23:46:36.886Z,86.00
2017-05-07T23:49:06.070Z,86.30
2017-05-07T23:51:35.242Z,86.50
2017-05-07T23:54:04.426Z,86.20
2017-05-07T23:56:34.341Z,86.40
2017-05-07T23:59:04.266Z,86.90
